sensor_id;sensor_type;location;lat;lon;timestamp;pressure;altitude;pressure_sealevel;temperature;humidity
12073;BME280;6098;49.004;8.372;2023-11-18T00:08:11;101331.44;;;8.51;100.00
12073;BME280;6098;49.004;8.372;2023-11-18T00:23:02;101335.02;;;8.49;100.00
12073;BME280;6098;49.004;8.372;2023-11-18T00:37:55;101323.04;;;8.54;100.00
12073;BME280;6098;49.004;8.372;2023-11-18T00:52:46;101305.05;;;8.51;100.00
12073;BME280;6098;49.004;8.372;2023-11-18T01:07:37;101326.66;;;8.48;100.00
12073;BME280;6098;49.004;8.372;2023-11-18T01:22:27;101361.91;;;8.45;100.00
12073;BME280;6098;49.004;8.372;2023-11-18T01:37:18;101344.27;;;8.49;100.00
12073;BME280;6098;49.004;8.372;2023-11-18T01:52:10;101334.08;;;8.51;100.00
12073;BME280;6098;49.004;8.372;2023-11-18T02:07:01;101338.13;;;8.45;100.00
12073;BME280;6098;49.004;8.372;2023-11-18T02:21:52;101343.85;;;8.46;100.00
12073;BME280;6098;49.004;8.372;2023-11-18T02:36:44;101351.48;;;8.36;100.00
12073;BME280;6098;49.004;8.372;2023-11-18T02:51:35;101342.29;;;8.33;100.00
12073;BME280;6098;49.004;8.372;2023-11-18T03:06:32;101332.46;;;8.43;100.00
12073;BME280;6098;49.004;8.372;2023-11-18T03:21:23;101321.89;;;8.42;100.00
12073;BME280;6098;49.004;8.372;2023-11-18T03:36:16;101346.55;;;8.43;100.00
12073;BME280;6098;49.004;8.372;2023-11-18T03:51:07;101332.11;;;8.37;100.00
12073;BME280;6098;49.004;8.372;2023-11-18T04:06:00;101337.94;;;8.29;100.00
12073;BME280;6098;49.004;8.372;2023-11-18T04:20:53;101341.95;;;8.25;100.00
12073;BME280;6098;49.004;8.372;2023-11-18T04:35:45;101330.11;;;8.19;100.00
12073;BME280;6098;49.004;8.372;2023-11-18T04:50:36;101334.15;;;8.13;100.00
12073;BME280;6098;49.004;8.372;2023-11-18T05:05:27;101325.89;;;8.06;100.00
12073;BME280;6098;49.004;8.372;2023-11-18T05:20:18;101327.30;;;8.02;100.00
12073;BME280;6098;49.004;8.372;2023-11-18T05:35:09;101330.11;;;7.88;100.00
12073;BME280;6098;49.004;8.372;2023-11-18T05:50:03;101332.42;;;7.79;100.00
12073;BME280;6098;49.004;8.372;2023-11-18T06:04:55;101311.33;;;7.76;100.00
12073;BME280;6098;49.004;8.372;2023-11-18T06:19:47;101329.86;;;7.74;100.00
12073;BME280;6098;49.004;8.372;2023-11-18T06:34:38;101320.23;;;7.70;100.00
12073;BME280;6098;49.004;8.372;2023-11-18T06:49:28;101305.75;;;7.65;100.00
12073;BME280;6098;49.004;8.372;2023-11-18T07:04:21;101316.33;;;7.63;100.00
12073;BME280;6098;49.004;8.372;2023-11-18T07:19:15;101326.05;;;7.60;100.00
12073;BME280;6098;49.004;8.372;2023-11-18T07:34:06;101327.44;;;7.55;100.00
12073;BME280;6098;49.004;8.372;2023-11-18T07:48:57;101316.38;;;7.60;100.00
12073;BME280;6098;49.004;8.372;2023-11-18T08:03:48;101323.00;;;7.58;100.00
12073;BME280;6098;49.004;8.372;2023-11-18T08:18:38;101329.48;;;7.67;100.00
12073;BME280;6098;49.004;8.372;2023-11-18T08:33:29;101317.07;;;7.74;99.87
12073;BME280;6098;49.004;8.372;2023-11-18T08:48:21;101302.52;;;8.10;99.41
12073;BME280;6098;49.004;8.372;2023-11-18T09:03:12;101303.27;;;8.19;99.94
12073;BME280;6098;49.004;8.372;2023-11-18T09:18:13;101285.23;;;8.50;98.10
12073;BME280;6098;49.004;8.372;2023-11-18T09:33:06;101288.69;;;8.81;93.49
12073;BME280;6098;49.004;8.372;2023-11-18T09:47:57;101302.52;;;9.20;90.63
12073;BME280;6098;49.004;8.372;2023-11-18T10:02:50;101309.92;;;9.48;86.71
12073;BME280;6098;49.004;8.372;2023-11-18T10:17:44;101307.38;;;9.43;85.82
12073;BME280;6098;49.004;8.372;2023-11-18T10:33:00;101301.58;;;9.45;86.45
12073;BME280;6098;49.004;8.372;2023-11-18T10:48:00;101299.45;;;9.41;86.28
12073;BME280;6098;49.004;8.372;2023-11-18T11:02:57;101287.28;;;9.32;84.33
12073;BME280;6098;49.004;8.372;2023-11-18T11:17:43;101277.36;;;9.44;85.95
12073;BME280;6098;49.004;8.372;2023-11-18T11:32:52;101229.20;;;9.47;87.63
12073;BME280;6098;49.004;8.372;2023-11-18T11:47:42;101197.00;;;9.48;87.99
12073;BME280;6098;49.004;8.372;2023-11-18T12:02:33;101174.47;;;9.49;88.83
12073;BME280;6098;49.004;8.372;2023-11-18T12:33:14;101148.18;;;9.61;92.37
12073;BME280;6098;49.004;8.372;2023-11-18T12:48:16;101123.27;;;9.69;92.60
12073;BME280;6098;49.004;8.372;2023-11-18T13:03:08;101100.72;;;9.72;92.39
12073;BME280;6098;49.004;8.372;2023-11-18T13:18:01;101044.91;;;9.63;91.22
12073;BME280;6098;49.004;8.372;2023-11-18T13:32:53;101023.41;;;9.75;92.13
12073;BME280;6098;49.004;8.372;2023-11-18T13:47:50;100993.05;;;9.90;91.55
12073;BME280;6098;49.004;8.372;2023-11-18T14:02:41;100974.66;;;10.00;91.50
12073;BME280;6098;49.004;8.372;2023-11-18T14:17:31;100971.50;;;10.02;89.73
12073;BME280;6098;49.004;8.372;2023-11-18T14:32:22;100957.67;;;10.07;89.69
12073;BME280;6098;49.004;8.372;2023-11-18T14:47:14;100979.17;;;10.14;88.69
12073;BME280;6098;49.004;8.372;2023-11-18T15:02:08;100961.84;;;10.18;89.61
12073;BME280;6098;49.004;8.372;2023-11-18T15:16:59;100949.37;;;10.21;89.83
12073;BME280;6098;49.004;8.372;2023-11-18T15:31:50;100914.98;;;10.20;90.30
12073;BME280;6098;49.004;8.372;2023-11-18T15:46:47;100896.99;;;10.16;90.57
12073;BME280;6098;49.004;8.372;2023-11-18T16:01:34;100882.92;;;10.14;90.96
12073;BME280;6098;49.004;8.372;2023-11-18T16:16:26;100867.91;;;10.14;91.52
12073;BME280;6098;49.004;8.372;2023-11-18T16:31:17;100831.85;;;10.07;92.59
12073;BME280;6098;49.004;8.372;2023-11-18T16:46:10;100813.53;;;10.01;93.00
12073;BME280;6098;49.004;8.372;2023-11-18T17:01:00;100761.45;;;10.00;93.46
12073;BME280;6098;49.004;8.372;2023-11-18T17:15:52;100756.76;;;9.95;92.67
12073;BME280;6098;49.004;8.372;2023-11-18T17:30:43;100749.58;;;9.99;92.20
12073;BME280;6098;49.004;8.372;2023-11-18T17:45:35;100718.63;;;10.01;92.11
12073;BME280;6098;49.004;8.372;2023-11-18T18:00:27;100717.52;;;10.08;91.71
12073;BME280;6098;49.004;8.372;2023-11-18T18:15:17;100685.09;;;10.15;94.03
12073;BME280;6098;49.004;8.372;2023-11-18T18:30:10;100651.58;;;10.14;92.00
12073;BME280;6098;49.004;8.372;2023-11-18T18:45:04;100609.27;;;10.11;90.82
12073;BME280;6098;49.004;8.372;2023-11-18T18:59:56;100602.05;;;10.02;87.09
12073;BME280;6098;49.004;8.372;2023-11-18T19:14:46;100593.66;;;10.02;85.91
12073;BME280;6098;49.004;8.372;2023-11-18T19:29:37;100541.00;;;10.06;86.53
12073;BME280;6098;49.004;8.372;2023-11-18T19:44:29;100512.02;;;10.02;82.72
12073;BME280;6098;49.004;8.372;2023-11-18T19:59:28;100489.87;;;10.04;79.77
12073;BME280;6098;49.004;8.372;2023-11-18T20:14:19;100492.25;;;10.25;79.10
12073;BME280;6098;49.004;8.372;2023-11-18T20:29:11;100484.57;;;10.42;76.54
12073;BME280;6098;49.004;8.372;2023-11-18T20:44:02;100492.25;;;10.61;76.19
12073;BME280;6098;49.004;8.372;2023-11-18T20:58:54;100516.59;;;10.71;76.69
12073;BME280;6098;49.004;8.372;2023-11-18T21:13:45;100524.02;;;10.74;77.90
12073;BME280;6098;49.004;8.372;2023-11-18T21:28:36;100514.11;;;10.55;83.64
12073;BME280;6098;49.004;8.372;2023-11-18T21:43:26;100464.24;;;10.42;89.85
12073;BME280;6098;49.004;8.372;2023-11-18T21:58:19;100433.95;;;10.26;95.81
12073;BME280;6098;49.004;8.372;2023-11-18T22:13:11;100411.16;;;10.21;98.90
12073;BME280;6098;49.004;8.372;2023-11-18T22:28:01;100410.34;;;10.31;100.00
12073;BME280;6098;49.004;8.372;2023-11-18T22:42:53;100427.28;;;10.39;100.00
12073;BME280;6098;49.004;8.372;2023-11-18T22:57:45;100346.47;;;10.39;100.00
12073;BME280;6098;49.004;8.372;2023-11-18T23:12:37;100345.37;;;10.44;100.00
12073;BME280;6098;49.004;8.372;2023-11-18T23:27:32;100371.38;;;10.56;100.00
12073;BME280;6098;49.004;8.372;2023-11-18T23:42:24;100349.05;;;10.63;100.00
12073;BME280;6098;49.004;8.372;2023-11-18T23:57:15;100334.82;;;10.65;100.00
